sensor_id;sensor_type;location;lat;lon;timestamp;P1;durP1;ratioP1;P2;durP2;ratioP2
43877;SDS011;29815;48.184;11.268;2023-04-03T00:01:44;10.20;;;6.80;;
43877;SDS011;29815;48.184;11.268;2023-04-03T00:04:21;8.00;;;6.30;;
43877;SDS011;29815;48.184;11.268;2023-04-03T00:06:50;9.65;;;6.63;;
43877;SDS011;29815;48.184;11.268;2023-04-03T00:09:19;8.43;;;6.35;;
43877;SDS011;29815;48.184;11.268;2023-04-03T00:11:49;9.13;;;7.00;;
43877;SDS011;29815;48.184;11.268;2023-04-03T00:14:18;6.55;;;5.22;;
43877;SDS011;29815;48.184;11.268;2023-04-03T00:16:48;6.93;;;5.90;;
43877;SDS011;29815;48.184;11.268;2023-04-03T00:19:18;7.70;;;6.05;;
43877;SDS011;29815;48.184;11.268;2023-04-03T00:21:49;9.45;;;6.13;;
43877;SDS011;29815;48.184;11.268;2023-04-03T00:24:20;10.80;;;5.95;;
43877;SDS011;29815;48.184;11.268;2023-04-03T00:26:50;8.13;;;5.70;;
43877;SDS011;29815;48.184;11.268;2023-04-03T00:29:19;10.82;;;6.15;;
43877;SDS011;29815;48.184;11.268;2023-04-03T00:31:49;5.97;;;5.32;;
43877;SDS011;29815;48.184;11.268;2023-04-03T00:34:18;6.55;;;5.18;;
43877;SDS011;29815;48.184;11.268;2023-04-03T00:36:50;6.43;;;5.78;;
43877;SDS011;29815;48.184;11.268;2023-04-03T00:39:19;8.82;;;5.45;;
43877;SDS011;29815;48.184;11.268;2023-04-03T00:41:49;6.07;;;5.28;;
43877;SDS011;29815;48.184;11.268;2023-04-03T00:44:22;10.45;;;7.38;;
43877;SDS011;29815;48.184;11.268;2023-04-03T00:47:54;6.63;;;5.32;;
43877;SDS011;29815;48.184;11.268;2023-04-03T00:50:25;7.18;;;5.43;;
43877;SDS011;29815;48.184;11.268;2023-04-03T00:52:55;6.38;;;5.13;;
43877;SDS011;29815;48.184;11.268;2023-04-03T00:55:26;6.68;;;4.60;;
43877;SDS011;29815;48.184;11.268;2023-04-03T00:57:56;8.70;;;5.00;;
43877;SDS011;29815;48.184;11.268;2023-04-03T01:00:26;7.82;;;5.95;;
43877;SDS011;29815;48.184;11.268;2023-04-03T01:02:55;6.07;;;4.75;;
43877;SDS011;29815;48.184;11.268;2023-04-03T01:05:27;6.93;;;5.03;;
43877;SDS011;29815;48.184;11.268;2023-04-03T01:07:58;7.20;;;4.40;;
43877;SDS011;29815;48.184;11.268;2023-04-03T01:10:29;6.25;;;5.03;;
43877;SDS011;29815;48.184;11.268;2023-04-03T01:12:59;4.72;;;4.03;;
43877;SDS011;29815;48.184;11.268;2023-04-03T01:15:29;6.78;;;4.13;;
43877;SDS011;29815;48.184;11.268;2023-04-03T01:18:02;7.10;;;4.20;;
43877;SDS011;29815;48.184;11.268;2023-04-03T01:24:25;5.95;;;5.03;;
43877;SDS011;29815;48.184;11.268;2023-04-03T01:27:06;5.32;;;4.07;;
43877;SDS011;29815;48.184;11.268;2023-04-03T01:29:39;6.60;;;4.63;;
43877;SDS011;29815;48.184;11.268;2023-04-03T01:32:12;5.45;;;4.10;;
43877;SDS011;29815;48.184;11.268;2023-04-03T01:34:42;4.22;;;3.28;;
43877;SDS011;29815;48.184;11.268;2023-04-03T01:37:12;7.45;;;4.03;;
43877;SDS011;29815;48.184;11.268;2023-04-03T01:39:41;5.35;;;3.70;;
43877;SDS011;29815;48.184;11.268;2023-04-03T01:42:11;4.10;;;3.60;;
43877;SDS011;29815;48.184;11.268;2023-04-03T01:44:43;5.82;;;3.97;;
43877;SDS011;29815;48.184;11.268;2023-04-03T01:47:14;5.85;;;3.78;;
43877;SDS011;29815;48.184;11.268;2023-04-03T01:49:44;5.45;;;3.58;;
43877;SDS011;29815;48.184;11.268;2023-04-03T01:52:13;5.30;;;4.18;;
43877;SDS011;29815;48.184;11.268;2023-04-03T01:54:43;5.13;;;4.10;;
43877;SDS011;29815;48.184;11.268;2023-04-03T01:57:12;4.00;;;3.33;;
43877;SDS011;29815;48.184;11.268;2023-04-03T01:59:42;3.95;;;3.05;;
43877;SDS011;29815;48.184;11.268;2023-04-03T02:02:12;4.97;;;3.40;;
43877;SDS011;29815;48.184;11.268;2023-04-03T02:04:43;4.35;;;3.42;;
43877;SDS011;29815;48.184;11.268;2023-04-03T02:07:12;4.43;;;3.60;;
43877;SDS011;29815;48.184;11.268;2023-04-03T02:09:42;4.97;;;3.53;;
43877;SDS011;29815;48.184;11.268;2023-04-03T02:12:11;6.65;;;3.60;;
43877;SDS011;29815;48.184;11.268;2023-04-03T02:14:40;5.53;;;4.00;;
43877;SDS011;29815;48.184;11.268;2023-04-03T02:17:12;6.55;;;3.75;;
43877;SDS011;29815;48.184;11.268;2023-04-03T02:19:43;4.28;;;3.30;;
43877;SDS011;29815;48.184;11.268;2023-04-03T02:22:13;5.50;;;3.45;;
43877;SDS011;29815;48.184;11.268;2023-04-03T02:24:42;4.60;;;3.60;;
43877;SDS011;29815;48.184;11.268;2023-04-03T02:27:12;5.05;;;3.47;;
43877;SDS011;29815;48.184;11.268;2023-04-03T02:29:42;4.90;;;3.33;;
43877;SDS011;29815;48.184;11.268;2023-04-03T02:32:11;4.35;;;3.45;;
43877;SDS011;29815;48.184;11.268;2023-04-03T02:34:41;4.20;;;3.63;;
43877;SDS011;29815;48.184;11.268;2023-04-03T02:37:14;5.38;;;3.83;;
43877;SDS011;29815;48.184;11.268;2023-04-03T02:39:46;5.45;;;3.95;;
43877;SDS011;29815;48.184;11.268;2023-04-03T02:42:15;6.82;;;4.07;;
43877;SDS011;29815;48.184;11.268;2023-04-03T02:44:45;4.38;;;3.30;;
43877;SDS011;29815;48.184;11.268;2023-04-03T02:47:14;4.80;;;3.33;;
43877;SDS011;29815;48.184;11.268;2023-04-03T02:49:45;4.38;;;3.05;;
43877;SDS011;29815;48.184;11.268;2023-04-03T02:52:15;4.18;;;2.97;;
43877;SDS011;29815;48.184;11.268;2023-04-03T02:54:44;4.07;;;3.13;;
43877;SDS011;29815;48.184;11.268;2023-04-03T02:57:14;4.15;;;3.35;;
43877;SDS011;29815;48.184;11.268;2023-04-03T02:59:43;7.18;;;3.38;;
43877;SDS011;29815;48.184;11.268;2023-04-03T03:02:13;5.72;;;3.72;;
43877;SDS011;29815;48.184;11.268;2023-04-03T03:04:42;3.72;;;3.13;;
43877;SDS011;29815;48.184;11.268;2023-04-03T03:07:13;5.82;;;3.20;;
43877;SDS011;29815;48.184;11.268;2023-04-03T03:09:43;4.53;;;3.30;;
43877;SDS011;29815;48.184;11.268;2023-04-03T03:12:12;3.92;;;3.50;;
43877;SDS011;29815;48.184;11.268;2023-04-03T03:14:42;6.38;;;3.38;;
43877;SDS011;29815;48.184;11.268;2023-04-03T03:17:11;3.45;;;3.03;;
43877;SDS011;29815;48.184;11.268;2023-04-03T03:19:41;4.47;;;3.60;;
43877;SDS011;29815;48.184;11.268;2023-04-03T03:22:10;4.65;;;3.05;;
43877;SDS011;29815;48.184;11.268;2023-04-03T03:24:41;4.72;;;3.60;;
43877;SDS011;29815;48.184;11.268;2023-04-03T03:27:11;5.85;;;3.35;;
43877;SDS011;29815;48.184;11.268;2023-04-03T03:29:40;4.88;;;3.58;;
43877;SDS011;29815;48.184;11.268;2023-04-03T03:32:10;3.25;;;2.83;;
43877;SDS011;29815;48.184;11.268;2023-04-03T03:34:39;5.38;;;3.50;;
43877;SDS011;29815;48.184;11.268;2023-04-03T03:37:09;5.10;;;3.50;;
43877;SDS011;29815;48.184;11.268;2023-04-03T03:39:38;7.05;;;4.00;;
43877;SDS011;29815;48.184;11.268;2023-04-03T03:42:09;5.43;;;3.67;;
43877;SDS011;29815;48.184;11.268;2023-04-03T03:44:39;6.22;;;4.00;;
43877;SDS011;29815;48.184;11.268;2023-04-03T03:47:08;5.88;;;3.55;;
43877;SDS011;29815;48.184;11.268;2023-04-03T03:49:38;6.25;;;3.13;;
43877;SDS011;29815;48.184;11.268;2023-04-03T03:52:08;4.07;;;2.85;;
43877;SDS011;29815;48.184;11.268;2023-04-03T03:54:38;5.97;;;3.78;;
43877;SDS011;29815;48.184;11.268;2023-04-03T03:57:07;6.18;;;4.63;;
43877;SDS011;29815;48.184;11.268;2023-04-03T03:59:39;4.88;;;3.60;;
43877;SDS011;29815;48.184;11.268;2023-04-03T04:02:09;5.55;;;3.25;;
43877;SDS011;29815;48.184;11.268;2023-04-03T04:04:39;5.15;;;3.88;;
43877;SDS011;29815;48.184;11.268;2023-04-03T04:07:09;5.65;;;3.92;;
43877;SDS011;29815;48.184;11.268;2023-04-03T04:09:39;4.30;;;3.40;;
43877;SDS011;29815;48.184;11.268;2023-04-03T04:12:10;7.90;;;4.45;;
43877;SDS011;29815;48.184;11.268;2023-04-03T04:14:40;4.25;;;3.33;;
43877;SDS011;29815;48.184;11.268;2023-04-03T04:17:10;4.65;;;3.47;;
43877;SDS011;29815;48.184;11.268;2023-04-03T04:19:39;6.88;;;3.55;;
43877;SDS011;29815;48.184;11.268;2023-04-03T04:22:09;5.10;;;3.63;;
43877;SDS011;29815;48.184;11.268;2023-04-03T04:24:38;5.68;;;3.67;;
43877;SDS011;29815;48.184;11.268;2023-04-03T04:27:08;4.85;;;3.67;;
43877;SDS011;29815;48.184;11.268;2023-04-03T04:29:40;5.88;;;3.42;;
43877;SDS011;29815;48.184;11.268;2023-04-03T04:32:09;8.50;;;3.72;;
43877;SDS011;29815;48.184;11.268;2023-04-03T04:34:39;4.88;;;3.58;;
43877;SDS011;29815;48.184;11.268;2023-04-03T04:37:09;5.15;;;3.58;;
43877;SDS011;29815;48.184;11.268;2023-04-03T04:39:38;5.03;;;3.63;;
43877;SDS011;29815;48.184;11.268;2023-04-03T04:42:08;4.90;;;3.50;;
43877;SDS011;29815;48.184;11.268;2023-04-03T04:44:44;6.18;;;3.65;;
43877;SDS011;29815;48.184;11.268;2023-04-03T04:47:15;5.10;;;3.40;;
43877;SDS011;29815;48.184;11.268;2023-04-03T04:49:45;5.55;;;3.78;;
43877;SDS011;29815;48.184;11.268;2023-04-03T04:52:15;4.78;;;4.03;;
43877;SDS011;29815;48.184;11.268;2023-04-03T04:54:45;4.85;;;3.15;;
43877;SDS011;29815;48.184;11.268;2023-04-03T04:57:16;5.88;;;3.88;;
43877;SDS011;29815;48.184;11.268;2023-04-03T04:59:47;5.35;;;3.60;;
43877;SDS011;29815;48.184;11.268;2023-04-03T05:02:16;5.90;;;4.22;;
43877;SDS011;29815;48.184;11.268;2023-04-03T05:04:46;5.70;;;4.10;;
43877;SDS011;29815;48.184;11.268;2023-04-03T05:07:21;5.07;;;3.80;;
43877;SDS011;29815;48.184;11.268;2023-04-03T05:09:51;5.43;;;4.13;;
43877;SDS011;29815;48.184;11.268;2023-04-03T05:12:22;4.43;;;4.03;;
43877;SDS011;29815;48.184;11.268;2023-04-03T05:14:56;5.57;;;4.13;;
43877;SDS011;29815;48.184;11.268;2023-04-03T05:17:27;6.38;;;4.20;;
43877;SDS011;29815;48.184;11.268;2023-04-03T05:19:58;8.85;;;4.70;;
43877;SDS011;29815;48.184;11.268;2023-04-03T05:22:28;8.80;;;4.93;;
43877;SDS011;29815;48.184;11.268;2023-04-03T05:25:04;6.53;;;4.82;;
43877;SDS011;29815;48.184;11.268;2023-04-03T05:27:37;5.50;;;4.05;;
43877;SDS011;29815;48.184;11.268;2023-04-03T05:30:07;6.88;;;3.85;;
43877;SDS011;29815;48.184;11.268;2023-04-03T05:32:40;4.82;;;3.90;;
43877;SDS011;29815;48.184;11.268;2023-04-03T05:35:17;8.48;;;4.43;;
43877;SDS011;29815;48.184;11.268;2023-04-03T05:37:50;8.40;;;5.80;;
43877;SDS011;29815;48.184;11.268;2023-04-03T05:40:20;6.32;;;4.28;;
43877;SDS011;29815;48.184;11.268;2023-04-03T05:42:53;5.05;;;3.80;;
43877;SDS011;29815;48.184;11.268;2023-04-03T05:45:25;7.75;;;5.13;;
43877;SDS011;29815;48.184;11.268;2023-04-03T05:47:55;7.15;;;4.75;;
43877;SDS011;29815;48.184;11.268;2023-04-03T05:50:25;5.47;;;4.22;;
43877;SDS011;29815;48.184;11.268;2023-04-03T05:52:56;5.80;;;4.10;;
43877;SDS011;29815;48.184;11.268;2023-04-03T05:55:30;6.93;;;4.78;;
43877;SDS011;29815;48.184;11.268;2023-04-03T05:58:01;6.22;;;4.43;;
43877;SDS011;29815;48.184;11.268;2023-04-03T06:00:30;8.50;;;4.72;;
43877;SDS011;29815;48.184;11.268;2023-04-03T06:03:02;8.43;;;4.30;;
43877;SDS011;29815;48.184;11.268;2023-04-03T06:05:32;5.20;;;4.60;;
43877;SDS011;29815;48.184;11.268;2023-04-03T06:08:02;6.97;;;4.15;;
43877;SDS011;29815;48.184;11.268;2023-04-03T06:10:33;6.82;;;5.70;;
43877;SDS011;29815;48.184;11.268;2023-04-03T06:13:04;7.78;;;5.45;;
43877;SDS011;29815;48.184;11.268;2023-04-03T06:15:34;8.60;;;4.30;;
43877;SDS011;29815;48.184;11.268;2023-04-03T06:18:04;9.23;;;7.10;;
43877;SDS011;29815;48.184;11.268;2023-04-03T06:20:34;6.93;;;4.43;;
43877;SDS011;29815;48.184;11.268;2023-04-03T06:23:05;6.07;;;4.40;;
43877;SDS011;29815;48.184;11.268;2023-04-03T06:25:35;4.97;;;4.38;;
43877;SDS011;29815;48.184;11.268;2023-04-03T06:28:05;5.43;;;4.57;;
43877;SDS011;29815;48.184;11.268;2023-04-03T06:30:37;7.70;;;4.55;;
43877;SDS011;29815;48.184;11.268;2023-04-03T06:33:07;7.18;;;5.05;;
43877;SDS011;29815;48.184;11.268;2023-04-03T06:35:36;7.47;;;4.30;;
43877;SDS011;29815;48.184;11.268;2023-04-03T06:38:06;8.38;;;5.20;;
43877;SDS011;29815;48.184;11.268;2023-04-03T06:40:36;10.18;;;5.45;;
43877;SDS011;29815;48.184;11.268;2023-04-03T06:43:08;5.32;;;4.35;;
43877;SDS011;29815;48.184;11.268;2023-04-03T06:45:38;5.90;;;4.70;;
43877;SDS011;29815;48.184;11.268;2023-04-03T06:48:07;6.22;;;4.63;;
43877;SDS011;29815;48.184;11.268;2023-04-03T06:50:39;6.13;;;4.25;;
43877;SDS011;29815;48.184;11.268;2023-04-03T06:53:08;6.47;;;4.93;;
43877;SDS011;29815;48.184;11.268;2023-04-03T06:55:39;8.52;;;5.10;;
43877;SDS011;29815;48.184;11.268;2023-04-03T06:58:10;7.28;;;4.65;;
43877;SDS011;29815;48.184;11.268;2023-04-03T07:00:41;7.50;;;4.47;;
43877;SDS011;29815;48.184;11.268;2023-04-03T07:03:10;6.10;;;4.53;;
43877;SDS011;29815;48.184;11.268;2023-04-03T07:05:40;6.82;;;5.22;;
43877;SDS011;29815;48.184;11.268;2023-04-03T07:08:11;8.43;;;4.60;;
43877;SDS011;29815;48.184;11.268;2023-04-03T07:10:41;7.05;;;5.38;;
43877;SDS011;29815;48.184;11.268;2023-04-03T07:13:11;5.95;;;4.78;;
43877;SDS011;29815;48.184;11.268;2023-04-03T07:15:41;7.18;;;5.20;;
43877;SDS011;29815;48.184;11.268;2023-04-03T07:18:11;6.10;;;4.57;;
43877;SDS011;29815;48.184;11.268;2023-04-03T07:20:41;5.70;;;4.72;;
43877;SDS011;29815;48.184;11.268;2023-04-03T07:23:10;6.53;;;5.05;;
43877;SDS011;29815;48.184;11.268;2023-04-03T07:25:42;6.55;;;4.43;;
43877;SDS011;29815;48.184;11.268;2023-04-03T07:28:14;7.40;;;5.20;;
43877;SDS011;29815;48.184;11.268;2023-04-03T07:30:45;8.95;;;5.30;;
43877;SDS011;29815;48.184;11.268;2023-04-03T07:33:19;8.90;;;5.88;;
43877;SDS011;29815;48.184;11.268;2023-04-03T07:35:51;8.30;;;5.80;;
43877;SDS011;29815;48.184;11.268;2023-04-03T07:38:20;8.48;;;5.10;;
43877;SDS011;29815;48.184;11.268;2023-04-03T07:40:50;6.15;;;5.15;;
43877;SDS011;29815;48.184;11.268;2023-04-03T07:43:22;7.88;;;5.30;;
43877;SDS011;29815;48.184;11.268;2023-04-03T07:45:53;5.47;;;4.13;;
43877;SDS011;29815;48.184;11.268;2023-04-03T07:48:23;7.05;;;4.95;;
43877;SDS011;29815;48.184;11.268;2023-04-03T07:50:58;6.57;;;5.07;;
43877;SDS011;29815;48.184;11.268;2023-04-03T07:53:29;7.25;;;5.18;;
43877;SDS011;29815;48.184;11.268;2023-04-03T07:55:59;6.50;;;5.10;;
43877;SDS011;29815;48.184;11.268;2023-04-03T07:58:31;6.85;;;5.03;;
43877;SDS011;29815;48.184;11.268;2023-04-03T08:01:01;8.07;;;5.95;;
43877;SDS011;29815;48.184;11.268;2023-04-03T08:03:31;7.35;;;5.43;;
43877;SDS011;29815;48.184;11.268;2023-04-03T08:06:02;6.10;;;5.18;;
43877;SDS011;29815;48.184;11.268;2023-04-03T08:08:41;10.02;;;6.32;;
43877;SDS011;29815;48.184;11.268;2023-04-03T08:11:11;5.32;;;4.68;;
43877;SDS011;29815;48.184;11.268;2023-04-03T08:13:42;8.80;;;5.22;;
43877;SDS011;29815;48.184;11.268;2023-04-03T08:16:12;8.45;;;5.20;;
43877;SDS011;29815;48.184;11.268;2023-04-03T08:18:46;7.22;;;5.57;;
43877;SDS011;29815;48.184;11.268;2023-04-03T08:21:16;9.43;;;6.22;;
43877;SDS011;29815;48.184;11.268;2023-04-03T08:23:47;8.82;;;5.90;;
43877;SDS011;29815;48.184;11.268;2023-04-03T08:26:19;9.75;;;6.05;;
43877;SDS011;29815;48.184;11.268;2023-04-03T08:28:51;8.52;;;6.25;;
43877;SDS011;29815;48.184;11.268;2023-04-03T08:31:21;9.73;;;6.40;;
43877;SDS011;29815;48.184;11.268;2023-04-03T08:33:50;8.32;;;5.57;;
43877;SDS011;29815;48.184;11.268;2023-04-03T08:36:20;6.80;;;5.20;;
43877;SDS011;29815;48.184;11.268;2023-04-03T08:38:54;7.28;;;5.53;;
43877;SDS011;29815;48.184;11.268;2023-04-03T08:41:27;7.13;;;5.72;;
43877;SDS011;29815;48.184;11.268;2023-04-03T08:44:21;11.25;;;6.15;;
43877;SDS011;29815;48.184;11.268;2023-04-03T08:47:04;9.27;;;5.72;;
43877;SDS011;29815;48.184;11.268;2023-04-03T08:49:53;8.10;;;5.30;;
43877;SDS011;29815;48.184;11.268;2023-04-03T08:52:35;7.35;;;5.13;;
43877;SDS011;29815;48.184;11.268;2023-04-03T08:55:14;8.48;;;5.68;;
43877;SDS011;29815;48.184;11.268;2023-04-03T08:57:54;7.30;;;4.90;;
43877;SDS011;29815;48.184;11.268;2023-04-03T09:00:32;8.52;;;5.72;;
43877;SDS011;29815;48.184;11.268;2023-04-03T09:03:13;6.90;;;5.13;;
43877;SDS011;29815;48.184;11.268;2023-04-03T09:05:47;7.55;;;5.95;;
43877;SDS011;29815;48.184;11.268;2023-04-03T09:08:23;6.50;;;5.68;;
43877;SDS011;29815;48.184;11.268;2023-04-03T09:11:02;8.02;;;5.50;;
43877;SDS011;29815;48.184;11.268;2023-04-03T09:13:45;6.80;;;5.47;;
43877;SDS011;29815;48.184;11.268;2023-04-03T09:16:27;8.18;;;5.53;;
43877;SDS011;29815;48.184;11.268;2023-04-03T09:19:11;9.40;;;5.57;;
43877;SDS011;29815;48.184;11.268;2023-04-03T09:21:53;7.35;;;5.50;;
43877;SDS011;29815;48.184;11.268;2023-04-03T09:24:25;5.90;;;4.82;;
43877;SDS011;29815;48.184;11.268;2023-04-03T09:26:57;8.27;;;4.97;;
43877;SDS011;29815;48.184;11.268;2023-04-03T09:29:33;7.50;;;4.70;;
43877;SDS011;29815;48.184;11.268;2023-04-03T09:32:17;5.65;;;4.30;;
43877;SDS011;29815;48.184;11.268;2023-04-03T09:34:55;5.85;;;4.53;;
43877;SDS011;29815;48.184;11.268;2023-04-03T09:37:44;6.35;;;5.07;;
43877;SDS011;29815;48.184;11.268;2023-04-03T09:40:27;8.18;;;4.70;;
43877;SDS011;29815;48.184;11.268;2023-04-03T09:46:17;6.38;;;4.97;;
43877;SDS011;29815;48.184;11.268;2023-04-03T09:48:59;4.97;;;4.43;;
43877;SDS011;29815;48.184;11.268;2023-04-03T09:51:36;6.03;;;4.95;;
43877;SDS011;29815;48.184;11.268;2023-04-03T09:54:26;6.15;;;4.43;;
43877;SDS011;29815;48.184;11.268;2023-04-03T09:57:09;5.22;;;4.07;;
43877;SDS011;29815;48.184;11.268;2023-04-03T09:59:43;5.03;;;4.13;;
43877;SDS011;29815;48.184;11.268;2023-04-03T10:02:30;5.10;;;4.47;;
43877;SDS011;29815;48.184;11.268;2023-04-03T10:05:24;5.18;;;4.28;;
43877;SDS011;29815;48.184;11.268;2023-04-03T10:08:09;7.85;;;4.75;;
43877;SDS011;29815;48.184;11.268;2023-04-03T10:13:53;5.78;;;4.57;;
43877;SDS011;29815;48.184;11.268;2023-04-03T10:16:28;9.82;;;5.72;;
43877;SDS011;29815;48.184;11.268;2023-04-03T10:19:12;8.63;;;6.13;;
43877;SDS011;29815;48.184;11.268;2023-04-03T10:22:08;7.85;;;5.55;;
43877;SDS011;29815;48.184;11.268;2023-04-03T10:24:52;6.32;;;5.35;;
43877;SDS011;29815;48.184;11.268;2023-04-03T10:27:40;9.10;;;5.13;;
43877;SDS011;29815;48.184;11.268;2023-04-03T10:30:32;7.68;;;5.55;;
43877;SDS011;29815;48.184;11.268;2023-04-03T10:33:16;6.53;;;5.47;;
43877;SDS011;29815;48.184;11.268;2023-04-03T10:36:17;8.35;;;4.43;;
43877;SDS011;29815;48.184;11.268;2023-04-03T10:39:10;8.25;;;5.47;;
43877;SDS011;29815;48.184;11.268;2023-04-03T10:41:56;7.32;;;5.25;;
43877;SDS011;29815;48.184;11.268;2023-04-03T10:44:57;7.75;;;6.10;;
43877;SDS011;29815;48.184;11.268;2023-04-03T10:47:52;6.88;;;5.28;;
43877;SDS011;29815;48.184;11.268;2023-04-03T10:50:36;6.22;;;4.57;;
43877;SDS011;29815;48.184;11.268;2023-04-03T10:53:14;8.07;;;4.78;;
43877;SDS011;29815;48.184;11.268;2023-04-03T10:55:56;6.55;;;4.47;;
43877;SDS011;29815;48.184;11.268;2023-04-03T10:58:38;6.93;;;5.82;;
43877;SDS011;29815;48.184;11.268;2023-04-03T11:01:13;7.18;;;4.93;;
43877;SDS011;29815;48.184;11.268;2023-04-03T11:03:49;7.88;;;6.72;;
43877;SDS011;29815;48.184;11.268;2023-04-03T11:06:23;9.57;;;5.53;;
43877;SDS011;29815;48.184;11.268;2023-04-03T11:09:01;6.05;;;4.30;;
43877;SDS011;29815;48.184;11.268;2023-04-03T11:11:38;6.78;;;4.60;;
43877;SDS011;29815;48.184;11.268;2023-04-03T11:14:11;7.25;;;4.55;;
43877;SDS011;29815;48.184;11.268;2023-04-03T11:16:52;7.00;;;4.85;;
43877;SDS011;29815;48.184;11.268;2023-04-03T11:19:41;8.70;;;6.47;;
43877;SDS011;29815;48.184;11.268;2023-04-03T11:22:21;9.60;;;5.57;;
43877;SDS011;29815;48.184;11.268;2023-04-03T11:24:59;9.45;;;6.88;;
43877;SDS011;29815;48.184;11.268;2023-04-03T11:27:41;11.15;;;6.55;;
43877;SDS011;29815;48.184;11.268;2023-04-03T11:30:15;9.30;;;6.18;;
43877;SDS011;29815;48.184;11.268;2023-04-03T11:32:56;7.85;;;5.50;;
43877;SDS011;29815;48.184;11.268;2023-04-03T11:36:03;5.75;;;3.67;;
43877;SDS011;29815;48.184;11.268;2023-04-03T11:38:52;5.85;;;3.90;;
43877;SDS011;29815;48.184;11.268;2023-04-03T11:41:26;6.05;;;4.22;;
43877;SDS011;29815;48.184;11.268;2023-04-03T11:44:00;5.38;;;4.25;;
43877;SDS011;29815;48.184;11.268;2023-04-03T11:46:48;5.93;;;2.90;;
43877;SDS011;29815;48.184;11.268;2023-04-03T11:58:34;4.43;;;3.20;;
43877;SDS011;29815;48.184;11.268;2023-04-03T12:01:06;3.83;;;2.97;;
43877;SDS011;29815;48.184;11.268;2023-04-03T12:06:52;8.87;;;3.93;;
43877;SDS011;29815;48.184;11.268;2023-04-03T12:12:59;3.85;;;2.80;;
43877;SDS011;29815;48.184;11.268;2023-04-03T12:24:47;3.10;;;2.63;;
43877;SDS011;29815;48.184;11.268;2023-04-03T12:27:23;5.53;;;3.60;;
43877;SDS011;29815;48.184;11.268;2023-04-03T12:30:13;7.95;;;2.70;;
43877;SDS011;29815;48.184;11.268;2023-04-03T12:33:00;2.72;;;2.35;;
43877;SDS011;29815;48.184;11.268;2023-04-03T12:35:54;5.07;;;2.72;;
43877;SDS011;29815;48.184;11.268;2023-04-03T12:38:45;4.90;;;3.10;;
43877;SDS011;29815;48.184;11.268;2023-04-03T12:41:43;4.43;;;2.83;;
43877;SDS011;29815;48.184;11.268;2023-04-03T12:44:38;6.05;;;3.20;;
43877;SDS011;29815;48.184;11.268;2023-04-03T12:47:23;4.43;;;2.80;;
43877;SDS011;29815;48.184;11.268;2023-04-03T12:50:00;5.32;;;3.00;;
43877;SDS011;29815;48.184;11.268;2023-04-03T12:52:35;6.53;;;2.95;;
43877;SDS011;29815;48.184;11.268;2023-04-03T12:55:14;4.05;;;2.50;;
43877;SDS011;29815;48.184;11.268;2023-04-03T12:57:45;4.50;;;2.53;;
43877;SDS011;29815;48.184;11.268;2023-04-03T13:00:19;4.18;;;2.72;;
43877;SDS011;29815;48.184;11.268;2023-04-03T13:03:02;3.17;;;2.10;;
43877;SDS011;29815;48.184;11.268;2023-04-03T13:05:35;7.65;;;5.70;;
43877;SDS011;29815;48.184;11.268;2023-04-03T13:08:07;4.68;;;2.70;;
43877;SDS011;29815;48.184;11.268;2023-04-03T13:10:49;7.63;;;4.93;;
43877;SDS011;29815;48.184;11.268;2023-04-03T13:13:25;8.43;;;3.90;;
43877;SDS011;29815;48.184;11.268;2023-04-03T13:15:55;4.72;;;3.17;;
43877;SDS011;29815;48.184;11.268;2023-04-03T13:18:27;4.03;;;3.30;;
43877;SDS011;29815;48.184;11.268;2023-04-03T13:21:01;4.22;;;2.90;;
43877;SDS011;29815;48.184;11.268;2023-04-03T13:23:38;4.05;;;2.70;;
43877;SDS011;29815;48.184;11.268;2023-04-03T13:26:12;3.00;;;2.17;;
43877;SDS011;29815;48.184;11.268;2023-04-03T13:31:21;3.63;;;2.15;;
43877;SDS011;29815;48.184;11.268;2023-04-03T13:33:57;3.15;;;2.42;;
43877;SDS011;29815;48.184;11.268;2023-04-03T13:36:34;3.38;;;2.03;;
43877;SDS011;29815;48.184;11.268;2023-04-03T13:39:18;4.75;;;2.80;;
43877;SDS011;29815;48.184;11.268;2023-04-03T13:41:52;3.45;;;2.47;;
43877;SDS011;29815;48.184;11.268;2023-04-03T13:44:28;4.63;;;2.40;;
43877;SDS011;29815;48.184;11.268;2023-04-03T13:47:14;2.80;;;2.33;;
43877;SDS011;29815;48.184;11.268;2023-04-03T13:49:58;4.97;;;3.08;;
43877;SDS011;29815;48.184;11.268;2023-04-03T13:52:34;4.15;;;1.90;;
43877;SDS011;29815;48.184;11.268;2023-04-03T13:55:17;4.22;;;1.77;;
43877;SDS011;29815;48.184;11.268;2023-04-03T13:57:54;4.47;;;2.80;;
43877;SDS011;29815;48.184;11.268;2023-04-03T14:00:32;3.13;;;1.70;;
43877;SDS011;29815;48.184;11.268;2023-04-03T14:03:13;3.38;;;1.90;;
43877;SDS011;29815;48.184;11.268;2023-04-03T14:05:47;3.80;;;2.25;;
43877;SDS011;29815;48.184;11.268;2023-04-03T14:08:17;4.43;;;2.10;;
43877;SDS011;29815;48.184;11.268;2023-04-03T14:11:03;4.60;;;2.63;;
43877;SDS011;29815;48.184;11.268;2023-04-03T14:13:33;3.58;;;2.40;;
43877;SDS011;29815;48.184;11.268;2023-04-03T14:16:03;4.35;;;2.13;;
43877;SDS011;29815;48.184;11.268;2023-04-03T14:18:42;4.68;;;2.40;;
43877;SDS011;29815;48.184;11.268;2023-04-03T14:21:13;3.08;;;1.90;;
43877;SDS011;29815;48.184;11.268;2023-04-03T14:23:47;3.58;;;1.77;;
43877;SDS011;29815;48.184;11.268;2023-04-03T14:26:20;3.65;;;2.58;;
43877;SDS011;29815;48.184;11.268;2023-04-03T14:28:54;3.85;;;2.08;;
43877;SDS011;29815;48.184;11.268;2023-04-03T14:31:23;3.65;;;2.13;;
43877;SDS011;29815;48.184;11.268;2023-04-03T14:33:53;4.65;;;2.45;;
43877;SDS011;29815;48.184;11.268;2023-04-03T14:36:24;5.50;;;2.28;;
43877;SDS011;29815;48.184;11.268;2023-04-03T14:38:56;5.13;;;2.65;;
43877;SDS011;29815;48.184;11.268;2023-04-03T14:41:29;6.10;;;3.35;;
43877;SDS011;29815;48.184;11.268;2023-04-03T14:43:59;3.63;;;2.70;;
43877;SDS011;29815;48.184;11.268;2023-04-03T14:46:29;4.15;;;2.20;;
43877;SDS011;29815;48.184;11.268;2023-04-03T14:49:24;4.10;;;1.98;;
43877;SDS011;29815;48.184;11.268;2023-04-03T14:51:58;4.70;;;2.67;;
43877;SDS011;29815;48.184;11.268;2023-04-03T14:54:27;3.15;;;2.30;;
43877;SDS011;29815;48.184;11.268;2023-04-03T14:56:59;3.08;;;2.00;;
43877;SDS011;29815;48.184;11.268;2023-04-03T14:59:29;6.97;;;2.42;;
43877;SDS011;29815;48.184;11.268;2023-04-03T15:01:59;3.17;;;1.85;;
43877;SDS011;29815;48.184;11.268;2023-04-03T15:04:29;3.08;;;1.83;;
43877;SDS011;29815;48.184;11.268;2023-04-03T15:06:59;2.40;;;1.80;;
43877;SDS011;29815;48.184;11.268;2023-04-03T15:09:28;5.80;;;2.17;;
43877;SDS011;29815;48.184;11.268;2023-04-03T15:11:59;2.42;;;1.63;;
43877;SDS011;29815;48.184;11.268;2023-04-03T15:14:28;5.38;;;1.92;;
43877;SDS011;29815;48.184;11.268;2023-04-03T15:17:14;2.25;;;1.50;;
43877;SDS011;29815;48.184;11.268;2023-04-03T15:19:48;2.53;;;1.80;;
43877;SDS011;29815;48.184;11.268;2023-04-03T15:22:18;3.70;;;1.92;;
43877;SDS011;29815;48.184;11.268;2023-04-03T15:24:48;3.33;;;2.15;;
43877;SDS011;29815;48.184;11.268;2023-04-03T15:27:19;4.40;;;2.10;;
43877;SDS011;29815;48.184;11.268;2023-04-03T15:29:49;4.32;;;1.77;;
43877;SDS011;29815;48.184;11.268;2023-04-03T15:32:18;4.78;;;1.83;;
43877;SDS011;29815;48.184;11.268;2023-04-03T15:34:47;4.53;;;1.92;;
43877;SDS011;29815;48.184;11.268;2023-04-03T15:37:20;4.28;;;1.70;;
43877;SDS011;29815;48.184;11.268;2023-04-03T15:39:49;4.05;;;1.80;;
43877;SDS011;29815;48.184;11.268;2023-04-03T15:42:20;4.88;;;1.40;;
43877;SDS011;29815;48.184;11.268;2023-04-03T15:44:49;2.83;;;1.80;;
43877;SDS011;29815;48.184;11.268;2023-04-03T15:47:19;3.17;;;1.58;;
43877;SDS011;29815;48.184;11.268;2023-04-03T15:49:48;3.03;;;1.55;;
43877;SDS011;29815;48.184;11.268;2023-04-03T15:52:18;3.58;;;1.80;;